Dapp, Canada
Current Conditions -  °F | °C
As of 2:00 PM on Friday 24 Oct 2014 (Local Time) from CZVL Reporting Station
Clear Clear  
Wind Chill: 52°   Ceiling: Unl
Heat Index: 52°   Visibility: 9mi
Dew Point: 23°   Wind: 17mph
Humidity: 33%   Direction: 290°WNW
Pressure: 29.85"   Gusts: 25mph
Location:  54.35°N, 113.92°W
Report Text: CZVL 242000Z AUTO 29015G22KT 9SM CLR 11/M05 A2985 RMK SLP123 DENSITY ALT 2300FT
Loading
Personal Weather Stations






























Interactive Weather Map
Tropical Storm Tracking
New forecast layout! Learn more

10-Day Weather Forecast

Advertisements
Track Severe Weather on mobile